createdAt,value
2019-02-25T00:01:13.502Z,0.60
2019-02-25T00:03:42.021Z,0.60
2019-02-25T00:06:10.528Z,0.70
2019-02-25T00:08:39.010Z,0.80
2019-02-25T00:11:26.928Z,0.70
2019-02-25T00:13:55.394Z,0.50
2019-02-25T00:16:43.171Z,0.30
2019-02-25T00:19:11.630Z,0.30
2019-02-25T00:21:40.092Z,0.50
2019-02-25T00:24:27.969Z,0.50
2019-02-25T00:26:56.516Z,0.30
2019-02-25T00:29:44.389Z,0.30
2019-02-25T00:32:12.886Z,0.20
2019-02-25T00:34:41.334Z,0.20
2019-02-25T00:37:09.808Z,0.20
2019-02-25T00:39:38.397Z,0.10
2019-02-25T00:42:06.863Z,0.10
2019-02-25T00:44:35.318Z,0.10
2019-02-25T00:47:03.842Z,0.10
2019-02-25T00:49:32.304Z,0.10
2019-02-25T00:52:00.808Z,0.10
2019-02-25T00:54:48.623Z,0.20
2019-02-25T00:57:17.065Z,0.40
2019-02-25T00:59:45.606Z,0.40
2019-02-25T01:02:14.146Z,0.40
2019-02-25T01:04:42.582Z,0.30
2019-02-25T01:07:11.070Z,0.00
2019-02-25T01:09:39.514Z,-0.30
2019-02-25T01:12:08.235Z,-0.30
2019-02-25T01:14:36.732Z,-0.30
2019-02-25T01:17:05.359Z,-0.40
2019-02-25T01:19:33.840Z,-0.40
2019-02-25T01:22:02.359Z,-0.40
2019-02-25T01:24:50.231Z,-0.40
2019-02-25T01:27:18.675Z,-0.40
2019-02-25T01:30:08.026Z,-0.30
2019-02-25T01:32:36.531Z,-0.30
2019-02-25T01:35:07.873Z,-0.30
2019-02-25T01:37:36.786Z,-0.30
2019-02-25T01:43:17.689Z,-0.30
2019-02-25T01:45:46.282Z,-0.30
2019-02-25T01:48:14.722Z,-0.30
2019-02-25T01:50:43.188Z,-0.30
2019-02-25T01:53:12.493Z,-0.40
2019-02-25T01:55:41.348Z,-0.40
2019-02-25T01:58:10.157Z,-0.50
2019-02-25T02:00:38.668Z,-0.50
2019-02-25T02:03:07.137Z,-0.50
2019-02-25T02:05:35.609Z,-0.50
2019-02-25T02:08:04.282Z,-0.60
2019-02-25T02:10:32.722Z,-0.60
2019-02-25T02:13:01.167Z,-0.70
2019-02-25T02:15:31.087Z,-0.70
2019-02-25T02:17:59.539Z,-0.70
2019-02-25T02:20:28.131Z,-0.70
2019-02-25T02:22:56.619Z,-0.60
2019-02-25T02:25:31.769Z,-0.70
2019-02-25T02:28:00.212Z,-0.60
2019-02-25T02:30:28.653Z,-0.60
2019-02-25T02:32:57.121Z,-0.60
2019-02-25T02:35:25.642Z,-0.60
2019-02-25T02:37:54.116Z,-0.60
2019-02-25T02:40:33.710Z,-0.60
2019-02-25T02:43:02.326Z,-0.70
2019-02-25T02:45:39.898Z,-0.70
2019-02-25T02:48:11.884Z,-0.70
2019-02-25T02:50:40.314Z,-0.70
2019-02-25T02:53:08.779Z,-0.60
2019-02-25T02:55:37.217Z,-0.60
2019-02-25T02:58:05.665Z,-0.60
2019-02-25T03:00:34.441Z,-0.70
2019-02-25T03:03:03.001Z,-0.90
2019-02-25T03:05:31.534Z,-0.90
2019-02-25T03:08:00.064Z,-1.00
2019-02-25T03:10:28.583Z,-1.00
2019-02-25T03:12:57.099Z,-1.00
2019-02-25T03:15:25.566Z,-1.00
2019-02-25T03:17:54.017Z,-1.00
2019-02-25T03:20:22.459Z,-1.00
2019-02-25T03:22:50.993Z,-1.00
2019-02-25T03:25:19.779Z,-1.00
2019-02-25T03:28:01.127Z,-1.00
2019-02-25T03:30:29.568Z,-1.00
2019-02-25T03:32:58.010Z,-1.00
2019-02-25T03:35:26.546Z,-1.00
2019-02-25T03:37:55.007Z,-1.00
2019-02-25T03:40:24.053Z,-1.10
2019-02-25T03:42:52.522Z,-1.10
2019-02-25T03:45:21.145Z,-1.20
2019-02-25T03:47:50.338Z,-1.40
2019-02-25T03:50:19.315Z,-1.40
2019-02-25T03:52:47.744Z,-1.40
2019-02-25T03:55:17.663Z,-1.40
2019-02-25T03:57:46.274Z,-1.30
2019-02-25T04:00:22.542Z,-1.40
2019-02-25T04:02:51.227Z,-1.40
2019-02-25T04:05:39.086Z,-1.60
2019-02-25T04:08:26.880Z,-1.70
2019-02-25T04:11:01.122Z,-1.60
2019-02-25T04:13:29.558Z,-1.70
2019-02-25T04:15:58.003Z,-1.70
2019-02-25T04:18:26.458Z,-1.70
2019-02-25T04:20:54.895Z,-1.70
2019-02-25T04:23:23.362Z,-1.70
2019-02-25T04:25:51.874Z,-1.70
2019-02-25T04:28:20.322Z,-1.70
2019-02-25T04:30:48.785Z,-1.60
2019-02-25T04:33:17.243Z,-1.50
2019-02-25T04:35:45.686Z,-1.50
2019-02-25T04:38:14.151Z,-1.50
2019-02-25T04:40:42.592Z,-1.40
2019-02-25T04:43:11.059Z,-1.50
2019-02-25T04:45:39.495Z,-1.60
2019-02-25T04:48:07.941Z,-1.70
2019-02-25T04:50:36.522Z,-1.70
2019-02-25T04:53:05.285Z,-1.70
2019-02-25T04:55:33.762Z,-1.70
2019-02-25T04:58:02.229Z,-1.70
2019-02-25T05:00:30.687Z,-1.70
2019-02-25T05:02:59.219Z,-1.80
2019-02-25T05:05:27.670Z,-1.80
2019-02-25T05:07:56.118Z,-1.70
2019-02-25T05:10:44.075Z,-1.70
2019-02-25T05:13:12.515Z,-1.70
2019-02-25T05:15:40.977Z,-1.70
2019-02-25T05:18:09.512Z,-1.70
2019-02-25T05:20:38.027Z,-1.60
2019-02-25T05:23:06.479Z,-1.50
2019-02-25T05:25:35.032Z,-1.40
2019-02-25T05:28:03.540Z,-1.40
2019-02-25T05:30:31.989Z,-1.30
2019-02-25T05:33:00.516Z,-1.30
2019-02-25T05:35:28.961Z,-1.30
2019-02-25T05:37:57.404Z,-1.20
2019-02-25T05:40:25.872Z,-1.30
2019-02-25T05:42:54.371Z,-1.40
2019-02-25T05:45:22.952Z,-1.40
2019-02-25T05:47:51.497Z,-1.50
2019-02-25T05:50:49.611Z,-1.70
2019-02-25T05:53:18.246Z,-1.80
2019-02-25T05:55:51.283Z,-1.80
2019-02-25T05:58:19.743Z,-1.80
2019-02-25T06:01:07.553Z,-1.70
2019-02-25T06:03:55.336Z,-1.70
2019-02-25T06:06:43.155Z,-1.70
2019-02-25T06:09:11.615Z,-1.80
2019-02-25T06:11:40.059Z,-1.70
2019-02-25T06:14:09.042Z,-1.80
2019-02-25T06:16:56.963Z,-1.70
2019-02-25T06:19:25.422Z,-1.70
2019-02-25T06:21:53.868Z,-1.50
2019-02-25T06:24:22.310Z,-1.50
2019-02-25T06:26:51.046Z,-1.60
2019-02-25T06:29:19.545Z,-1.60
2019-02-25T06:31:48.007Z,-1.60
2019-02-25T06:34:16.503Z,-1.40
2019-02-25T06:36:44.947Z,-1.30
2019-02-25T06:39:13.411Z,-1.20
2019-02-25T06:41:41.931Z,-1.20
2019-02-25T06:44:10.363Z,-1.50
2019-02-25T06:46:38.838Z,-1.60
2019-02-25T06:49:07.284Z,-1.50
2019-02-25T06:51:35.724Z,-1.50
2019-02-25T06:54:04.179Z,-1.40
2019-02-25T06:56:32.621Z,-1.30
2019-02-25T06:59:01.131Z,-1.30
2019-02-25T07:01:29.594Z,-1.30
2019-02-25T07:04:05.219Z,-1.10
2019-02-25T07:06:37.988Z,-1.10
2019-02-25T07:09:08.427Z,-0.90
2019-02-25T07:11:41.218Z,-0.80
2019-02-25T07:14:14.338Z,-0.60
2019-02-25T07:16:44.418Z,-0.60
2019-02-25T07:19:20.298Z,-0.40
2019-02-25T07:21:56.257Z,-0.30
2019-02-25T07:24:35.279Z,-0.10
2019-02-25T07:27:08.030Z,0.00
2019-02-25T07:29:38.122Z,0.30
2019-02-25T07:32:17.365Z,0.50
2019-02-25T07:34:47.514Z,0.80
2019-02-25T07:37:26.182Z,1.10
2019-02-25T07:39:59.314Z,1.40
2019-02-25T07:42:47.262Z,1.70
2019-02-25T07:45:26.631Z,2.00
2019-02-25T07:47:56.735Z,2.40
2019-02-25T07:50:26.816Z,2.80
2019-02-25T07:52:59.646Z,3.10
2019-02-25T07:55:29.747Z,3.30
2019-02-25T07:58:15.838Z,3.70
2019-02-25T08:00:48.764Z,4.10
2019-02-25T08:03:34.852Z,4.20
2019-02-25T08:06:12.004Z,4.60
2019-02-25T08:08:58.466Z,5.00
2019-02-25T08:11:28.555Z,5.50
2019-02-25T08:14:10.717Z,6.00
2019-02-25T08:16:46.947Z,6.30
2019-02-25T08:19:17.090Z,6.60
2019-02-25T08:21:56.266Z,6.70
2019-02-25T08:24:30.589Z,7.00
2019-02-25T08:26:58.133Z,7.30
2019-02-25T08:29:28.240Z,7.50
2019-02-25T08:32:14.507Z,7.90
2019-02-25T08:34:44.607Z,8.20
2019-02-25T08:37:20.783Z,8.60
2019-02-25T08:40:05.851Z,8.90
2019-02-25T08:42:34.847Z,9.30
2019-02-25T08:45:13.526Z,9.80
2019-02-25T08:47:43.595Z,9.90
2019-02-25T08:50:31.470Z,10.30
2019-02-25T08:52:59.919Z,10.70
2019-02-25T08:55:28.371Z,11.10
2019-02-25T08:57:56.830Z,11.10
2019-02-25T09:00:25.342Z,11.20
2019-02-25T09:02:53.810Z,11.50
2019-02-25T09:05:22.259Z,11.90
2019-02-25T09:07:50.712Z,12.00
2019-02-25T09:10:19.242Z,12.20
2019-02-25T09:13:07.049Z,12.40
2019-02-25T09:18:02.672Z,13.20
2019-02-25T09:20:31.179Z,13.50
2019-02-25T09:22:59.643Z,13.70
2019-02-25T09:25:47.440Z,13.90
2019-02-25T09:28:15.906Z,14.30
2019-02-25T09:30:44.346Z,14.70
2019-02-25T09:33:12.791Z,15.00
2019-02-25T09:35:41.255Z,14.60
2019-02-25T09:38:09.726Z,15.00
2019-02-25T09:40:38.232Z,15.10
2019-02-25T09:43:06.754Z,15.30
2019-02-25T09:45:35.198Z,15.40
2019-02-25T09:48:03.663Z,15.60
2019-02-25T09:50:32.371Z,16.00
2019-02-25T09:53:00.816Z,16.50
2019-02-25T09:55:29.280Z,16.80
2019-02-25T09:57:57.725Z,17.20
2019-02-25T10:00:46.220Z,17.30
2019-02-25T10:03:14.762Z,17.40
2019-02-25T10:05:43.199Z,17.70
2019-02-25T10:08:11.727Z,18.00
2019-02-25T10:10:59.515Z,18.10
2019-02-25T10:13:27.987Z,18.50
2019-02-25T10:15:56.431Z,18.10
2019-02-25T10:18:44.231Z,18.00
2019-02-25T10:23:40.778Z,19.00
2019-02-25T10:26:09.261Z,18.60
2019-02-25T10:28:37.708Z,18.40
2019-02-25T10:31:06.165Z,18.90
2019-02-25T10:33:53.966Z,19.10
2019-02-25T10:36:22.422Z,19.60
2019-02-25T10:38:50.855Z,19.70
2019-02-25T10:41:21.198Z,19.80
2019-02-25T10:43:49.982Z,20.00
2019-02-25T10:46:18.601Z,20.50
2019-02-25T10:48:47.867Z,21.30
2019-02-25T10:51:17.234Z,21.50
2019-02-25T10:53:47.391Z,20.90
2019-02-25T10:56:39.378Z,21.40
2019-02-25T10:59:27.161Z,21.30
2019-02-25T11:01:55.631Z,21.10
2019-02-25T11:04:26.106Z,21.40
2019-02-25T11:06:54.251Z,21.50
2019-02-25T11:09:27.059Z,21.20
2019-02-25T11:11:58.009Z,21.80
2019-02-25T11:14:25.727Z,22.30
2019-02-25T11:16:54.191Z,22.50
2019-02-25T11:19:24.436Z,22.60
2019-02-25T11:21:52.795Z,20.00
2019-02-25T11:24:23.361Z,21.00
2019-02-25T11:26:51.423Z,20.30
2019-02-25T11:29:19.871Z,20.20
2019-02-25T11:31:49.438Z,19.70
2019-02-25T11:34:18.492Z,19.60
2019-02-25T11:36:48.232Z,20.10
2019-02-25T11:39:17.463Z,20.40
2019-02-25T11:41:45.972Z,20.30
2019-02-25T11:44:14.490Z,20.80
2019-02-25T11:46:42.996Z,21.00
2019-02-25T11:49:11.506Z,20.00
2019-02-25T11:51:39.967Z,20.10
2019-02-25T11:54:08.407Z,20.40
2019-02-25T11:56:36.843Z,20.60
2019-02-25T11:59:05.389Z,20.70
2019-02-25T12:01:33.903Z,20.20
2019-02-25T12:04:02.344Z,21.60
2019-02-25T12:06:30.810Z,21.80
2019-02-25T12:08:59.243Z,21.40
2019-02-25T12:11:27.700Z,19.90
2019-02-25T12:13:56.141Z,19.90
2019-02-25T12:16:24.581Z,19.50
2019-02-25T12:18:53.043Z,19.00
2019-02-25T12:21:21.495Z,19.00
2019-02-25T12:23:49.935Z,19.40
2019-02-25T12:26:18.395Z,19.10
2019-02-25T12:28:46.836Z,19.30
2019-02-25T12:31:15.269Z,20.00
2019-02-25T12:33:43.729Z,19.50
2019-02-25T12:36:13.717Z,19.90
2019-02-25T12:38:42.290Z,20.10
2019-02-25T12:41:30.083Z,19.60
2019-02-25T12:43:58.527Z,19.50
2019-02-25T12:46:32.047Z,19.50
2019-02-25T12:49:00.486Z,19.70
2019-02-25T12:51:28.929Z,20.20
2019-02-25T12:53:57.405Z,20.50
2019-02-25T12:56:25.913Z,20.00
2019-02-25T12:59:13.728Z,19.80
2019-02-25T13:01:42.250Z,20.10
2019-02-25T13:04:10.687Z,19.80
2019-02-25T13:06:39.152Z,19.60
2019-02-25T13:09:10.663Z,19.30
2019-02-25T13:11:39.919Z,19.20
2019-02-25T13:14:08.535Z,18.90
2019-02-25T13:16:36.973Z,19.00
2019-02-25T13:19:05.419Z,19.20
2019-02-25T13:21:33.887Z,19.20
2019-02-25T13:24:04.430Z,19.30
2019-02-25T13:26:33.961Z,19.40
2019-02-25T13:29:02.667Z,19.10
2019-02-25T13:31:31.214Z,19.20
2019-02-25T13:33:59.722Z,19.10
2019-02-25T13:36:28.482Z,19.40
2019-02-25T13:38:57.019Z,19.20
2019-02-25T13:41:25.538Z,19.50
2019-02-25T13:43:54.054Z,19.40
2019-02-25T13:46:22.768Z,19.70
2019-02-25T13:48:51.285Z,19.50
2019-02-25T13:51:19.798Z,19.30
2019-02-25T13:53:48.340Z,19.10
2019-02-25T13:56:16.859Z,18.90
2019-02-25T13:58:45.437Z,18.70
2019-02-25T14:01:33.264Z,18.80
2019-02-25T14:04:21.115Z,18.70
2019-02-25T14:06:49.829Z,18.80
2019-02-25T14:09:18.347Z,18.40
2019-02-25T14:11:46.873Z,18.10
2019-02-25T14:14:15.512Z,17.80
2019-02-25T14:16:44.056Z,17.80
2019-02-25T14:19:12.571Z,17.90
2019-02-25T14:21:41.189Z,17.90
2019-02-25T14:24:09.706Z,17.90
2019-02-25T14:26:38.293Z,17.70
2019-02-25T14:29:07.276Z,17.70
2019-02-25T14:31:35.855Z,17.70
2019-02-25T14:34:04.445Z,17.80
2019-02-25T14:36:33.051Z,17.70
2019-02-25T14:39:04.286Z,17.70
2019-02-25T14:41:31.794Z,17.40
2019-02-25T14:44:00.446Z,17.50
2019-02-25T14:46:29.135Z,17.40
2019-02-25T14:48:57.719Z,17.60
2019-02-25T14:51:26.260Z,17.50
2019-02-25T14:56:23.461Z,17.20
2019-02-25T14:58:52.279Z,17.10
2019-02-25T15:01:22.709Z,17.10
2019-02-25T15:03:51.028Z,17.10
2019-02-25T15:06:19.629Z,16.90
2019-02-25T15:08:48.143Z,16.70
2019-02-25T15:11:16.660Z,16.80
2019-02-25T15:13:45.329Z,16.80
2019-02-25T15:16:13.851Z,16.70
2019-02-25T15:18:42.375Z,16.80
2019-02-25T15:21:11.696Z,16.80
2019-02-25T15:23:41.150Z,16.70
2019-02-25T15:26:10.139Z,16.80
2019-02-25T15:28:38.745Z,16.80
2019-02-25T15:31:08.907Z,16.70
2019-02-25T15:33:37.999Z,16.70
2019-02-25T15:36:07.219Z,16.70
2019-02-25T15:38:37.066Z,16.70
2019-02-25T15:41:07.321Z,16.70
2019-02-25T15:43:36.474Z,16.70
2019-02-25T15:46:05.377Z,16.70
2019-02-25T15:48:34.958Z,16.70
2019-02-25T15:51:04.303Z,16.80
2019-02-25T15:53:33.383Z,16.80
2019-02-25T15:56:03.706Z,16.80
2019-02-25T15:58:32.436Z,16.80
2019-02-25T16:01:00.954Z,16.70
2019-02-25T16:03:48.844Z,16.70
2019-02-25T16:06:17.695Z,16.70
2019-02-25T16:08:49.845Z,16.70
2019-02-25T16:11:18.806Z,16.70
2019-02-25T16:13:47.653Z,16.80
2019-02-25T16:16:16.246Z,16.70
2019-02-25T16:18:44.872Z,16.60
2019-02-25T16:21:13.415Z,16.50
2019-02-25T16:23:43.094Z,16.30
2019-02-25T16:26:13.546Z,16.20
2019-02-25T16:28:42.494Z,16.10
2019-02-25T16:31:12.322Z,16.00
2019-02-25T16:33:41.410Z,15.80
2019-02-25T16:36:10.181Z,15.60
2019-02-25T16:38:38.960Z,15.50
2019-02-25T16:41:08.526Z,15.20
2019-02-25T16:43:37.740Z,14.90
2019-02-25T16:46:07.274Z,14.60
2019-02-25T16:48:36.596Z,14.50
2019-02-25T16:51:07.929Z,14.50
2019-02-25T16:53:38.704Z,14.40
2019-02-25T16:56:07.854Z,14.40
2019-02-25T16:58:36.512Z,14.30
2019-02-25T17:01:06.028Z,14.20
2019-02-25T17:03:45.913Z,14.10
2019-02-25T17:06:14.303Z,14.10
2019-02-25T17:08:42.870Z,14.00
2019-02-25T17:11:12.901Z,13.90
2019-02-25T17:13:41.697Z,13.80
2019-02-25T17:16:18.110Z,13.70
2019-02-25T17:18:40.744Z,13.60
2019-02-25T17:21:09.477Z,13.50
2019-02-25T17:23:38.805Z,13.30
2019-02-25T17:26:07.815Z,13.10
2019-02-25T17:28:37.678Z,13.00
2019-02-25T17:31:06.601Z,12.80
2019-02-25T17:33:37.492Z,12.70
2019-02-25T17:36:07.602Z,12.60
2019-02-25T17:38:37.030Z,12.60
2019-02-25T17:41:06.302Z,12.50
2019-02-25T17:43:36.454Z,12.50
2019-02-25T17:46:06.977Z,12.40
2019-02-25T17:48:36.461Z,12.20
2019-02-25T17:51:05.053Z,11.90
2019-02-25T17:53:54.674Z,11.70
2019-02-25T17:56:29.805Z,11.70
2019-02-25T17:58:59.417Z,11.50
2019-02-25T18:01:28.859Z,11.50
2019-02-25T18:03:57.742Z,11.40
2019-02-25T18:06:30.137Z,11.30
2019-02-25T18:09:17.740Z,11.20
2019-02-25T18:11:47.681Z,11.10
2019-02-25T18:14:17.522Z,11.10
2019-02-25T18:16:48.712Z,11.10
2019-02-25T18:19:18.601Z,11.10
2019-02-25T18:21:47.122Z,11.10
2019-02-25T18:24:15.634Z,11.00
2019-02-25T18:26:46.889Z,10.80
2019-02-25T18:29:16.023Z,10.60
2019-02-25T18:31:45.083Z,10.50
2019-02-25T18:34:13.776Z,10.60
2019-02-25T18:36:45.184Z,10.80
2019-02-25T18:39:14.319Z,10.80
2019-02-25T18:41:42.830Z,10.70
2019-02-25T18:44:11.896Z,10.60
2019-02-25T18:46:42.432Z,10.40
2019-02-25T18:49:32.669Z,10.20
2019-02-25T18:52:01.702Z,10.00
2019-02-25T18:54:30.283Z,9.80
2019-02-25T18:57:00.754Z,9.80
2019-02-25T18:59:29.470Z,9.70
2019-02-25T19:01:58.342Z,9.70
2019-02-25T19:04:26.994Z,9.80
2019-02-25T19:06:55.703Z,9.80
2019-02-25T19:09:25.657Z,9.80
2019-02-25T19:11:56.207Z,9.90
2019-02-25T19:14:26.508Z,9.90
2019-02-25T19:16:55.474Z,9.90
2019-02-25T19:19:24.047Z,9.90
2019-02-25T19:21:54.235Z,9.90
2019-02-25T19:24:22.963Z,9.80
2019-02-25T19:26:51.667Z,9.90
2019-02-25T19:29:21.792Z,10.00
2019-02-25T19:31:50.690Z,10.00
2019-02-25T19:34:19.224Z,9.90
2019-02-25T19:36:47.903Z,9.60
2019-02-25T19:39:39.148Z,9.60
2019-02-25T19:42:07.821Z,9.60
2019-02-25T19:44:38.115Z,9.60
2019-02-25T19:47:07.948Z,9.40
2019-02-25T19:49:38.807Z,9.10
2019-02-25T19:52:07.207Z,8.80
2019-02-25T19:54:38.413Z,8.50
2019-02-25T19:57:06.708Z,8.30
2019-02-25T19:59:35.231Z,8.10
2019-02-25T20:02:03.840Z,8.00
2019-02-25T20:04:35.550Z,7.90
2019-02-25T20:07:02.508Z,7.80
2019-02-25T20:09:31.007Z,7.80
2019-02-25T20:12:01.476Z,7.70
2019-02-25T20:14:31.507Z,7.80
2019-02-25T20:16:59.942Z,7.70
2019-02-25T20:19:28.552Z,7.60
2019-02-25T20:21:57.179Z,7.70
2019-02-25T20:24:25.715Z,7.90
2019-02-25T20:26:57.723Z,8.10
2019-02-25T20:29:24.736Z,7.70
2019-02-25T20:31:53.621Z,7.70
2019-02-25T20:34:25.160Z,7.60
2019-02-25T20:36:55.384Z,7.50
2019-02-25T20:39:23.431Z,7.30
2019-02-25T20:41:52.337Z,7.50
2019-02-25T20:44:22.257Z,7.50
2019-02-25T20:46:52.810Z,7.30
2019-02-25T20:49:41.135Z,6.90
2019-02-25T20:52:09.647Z,6.80
2019-02-25T20:54:41.610Z,6.40
2019-02-25T20:57:12.118Z,6.40
2019-02-25T20:59:40.338Z,6.30
2019-02-25T21:02:15.673Z,6.30
2019-02-25T21:04:43.366Z,6.50
2019-02-25T21:07:13.250Z,6.40
2019-02-25T21:09:42.276Z,6.30
2019-02-25T21:12:12.715Z,6.30
2019-02-25T21:14:42.709Z,6.20
2019-02-25T21:17:11.198Z,6.20
2019-02-25T21:19:40.365Z,6.20
2019-02-25T21:22:09.878Z,6.10
2019-02-25T21:24:38.319Z,6.10
2019-02-25T21:27:08.587Z,6.00
2019-02-25T21:29:38.836Z,5.80
2019-02-25T21:32:07.101Z,5.80
2019-02-25T21:34:46.186Z,5.70
2019-02-25T21:37:13.427Z,5.50
2019-02-25T21:39:42.818Z,5.40
2019-02-25T21:42:14.745Z,5.40
2019-02-25T21:44:46.189Z,5.20
2019-02-25T21:47:11.935Z,5.10
2019-02-25T21:49:40.575Z,5.00
2019-02-25T21:52:10.851Z,4.90
2019-02-25T21:54:39.256Z,4.90
2019-02-25T21:57:09.609Z,4.90
2019-02-25T21:59:38.728Z,4.90
2019-02-25T22:02:08.045Z,4.90
2019-02-25T22:04:38.474Z,4.80
2019-02-25T22:07:06.696Z,4.70
2019-02-25T22:09:36.965Z,4.70
2019-02-25T22:12:05.296Z,4.60
2019-02-25T22:14:33.755Z,4.50
2019-02-25T22:17:02.193Z,4.40
2019-02-25T22:19:50.278Z,4.20
2019-02-25T22:22:19.328Z,4.20
2019-02-25T22:24:48.980Z,4.10
2019-02-25T22:27:18.553Z,4.00
2019-02-25T22:29:47.589Z,3.90
2019-02-25T22:32:16.043Z,3.90
2019-02-25T22:34:44.568Z,3.80
2019-02-25T22:37:16.736Z,3.70
2019-02-25T22:39:43.910Z,3.60
2019-02-25T22:42:13.842Z,3.50
2019-02-25T22:44:42.519Z,3.50
2019-02-25T22:47:30.332Z,3.50
2019-02-25T22:50:06.353Z,3.40
2019-02-25T22:52:58.209Z,3.50
2019-02-25T22:55:45.346Z,3.50
2019-02-25T22:58:16.946Z,3.50
2019-02-25T23:00:52.227Z,3.40
2019-02-25T23:03:42.895Z,3.40
2019-02-25T23:06:11.579Z,3.40
2019-02-25T23:08:44.041Z,3.30
2019-02-25T23:11:12.538Z,3.30
2019-02-25T23:13:42.781Z,3.20
2019-02-25T23:16:13.206Z,3.20
2019-02-25T23:18:41.542Z,3.20
2019-02-25T23:21:10.050Z,3.10
2019-02-25T23:23:40.049Z,3.00
2019-02-25T23:26:10.337Z,2.90
2019-02-25T23:28:38.843Z,2.80
2019-02-25T23:31:07.271Z,2.70
2019-02-25T23:33:40.182Z,2.70
2019-02-25T23:36:08.398Z,2.60
2019-02-25T23:38:57.740Z,2.60
2019-02-25T23:41:27.006Z,2.60
2019-02-25T23:43:55.516Z,2.60
2019-02-25T23:46:27.282Z,2.60
2019-02-25T23:48:54.234Z,2.60
2019-02-25T23:51:23.495Z,2.60
2019-02-25T23:53:55.912Z,2.60
2019-02-25T23:56:25.608Z,2.50
2019-02-25T23:58:54.439Z,2.40
